Airfield :
LOGIN :

Register | Disclaimer

   EN    FR    IT 

 










Legend :    VFR   Marginal VFR   IFR   Intensive IFR   Very Intensive IFR
Visi :
Ceiling :
>= 8 km
>= 3000ft
5 to 8 km
1000 to 3000 ft
1500m to 5 km
500 to 1000 ft
800 to 1500m
200 to 500 ft
< 800m
< 200 ft
Symbols :   Thunderstorms  Fog  Heavy snow  Heavy precipitations  Wind > 20 kt
SIGMETs :     Misc.  Thunderstorms  Icing  Turbulence  Mountain Waves  Volcanic Ashes






- Airport Elevation : 137 ft


LIPS - Istrana AFB Treviso

CURRENT METAR :
  • 020255Z /////KT 9000 BKN040 06/05 Q1018

EXPIRED METARs :
  • 020155Z /////KT 8000 SCT040 BKN060 06/05 Q1018 RMK BKN VIS MIN 8000 WIND THR26 36005KT WIND THR08 04005KT BLU
  • 020055Z /////KT 8000 -RA SCT040 BKN060 06/05 Q1019

TAF TAF LIPS
Valid from the 02 at 03:00 until the 02 at 12:00 UTC


020200Z 0203/0212 06010KT 9999 SCT030 BKN060
TEMPO 0203/0206 4000 RA BR SCT020 BKN040



MET'MAP, your aeronautical weather chart ! - Copyright ORBIFLY December 2007 - Disclaimer

ORBIFLY MET'MAP TEAM :

Programming & Development : Alexandra Zaïnal
Original concept : Baudouin d'Aumeries
Technical & hardware support : Manuel Goepfert
Assistance : Marc-Olivier Méhu




SOURCES & CREDITS :

   NOAA